sensor_id;sensor_type;location;lat;lon;timestamp;P1;durP1;ratioP1;P2;durP2;ratioP2
67352;SDS011;54238;52.278;21.056;2023-02-10T00:00:05;29.50;;;13.20;;
67352;SDS011;54238;52.278;21.056;2023-02-10T00:02:58;37.50;;;16.90;;
67352;SDS011;54238;52.278;21.056;2023-02-10T00:05:25;30.00;;;14.10;;
67352;SDS011;54238;52.278;21.056;2023-02-10T00:07:53;33.80;;;16.40;;
67352;SDS011;54238;52.278;21.056;2023-02-10T00:10:22;36.00;;;15.90;;
67352;SDS011;54238;52.278;21.056;2023-02-10T00:12:57;36.00;;;15.70;;
67352;SDS011;54238;52.278;21.056;2023-02-10T00:15:26;26.20;;;13.90;;
67352;SDS011;54238;52.278;21.056;2023-02-10T00:18:00;34.10;;;16.20;;
67352;SDS011;54238;52.278;21.056;2023-02-10T00:22:59;22.10;;;8.90;;
67352;SDS011;54238;52.278;21.056;2023-02-10T00:25:28;34.80;;;15.00;;
67352;SDS011;54238;52.278;21.056;2023-02-10T00:27:58;30.90;;;14.40;;
67352;SDS011;54238;52.278;21.056;2023-02-10T00:30:30;28.20;;;13.40;;
67352;SDS011;54238;52.278;21.056;2023-02-10T00:32:58;33.50;;;14.90;;
67352;SDS011;54238;52.278;21.056;2023-02-10T00:35:28;34.80;;;16.10;;
67352;SDS011;54238;52.278;21.056;2023-02-10T00:40:29;31.70;;;13.50;;
67352;SDS011;54238;52.278;21.056;2023-02-10T00:42:59;25.90;;;10.70;;
67352;SDS011;54238;52.278;21.056;2023-02-10T00:45:28;25.50;;;11.50;;
67352;SDS011;54238;52.278;21.056;2023-02-10T00:47:56;35.00;;;15.40;;
67352;SDS011;54238;52.278;21.056;2023-02-10T00:50:27;33.30;;;16.00;;
67352;SDS011;54238;52.278;21.056;2023-02-10T00:52:57;30.80;;;14.60;;
67352;SDS011;54238;52.278;21.056;2023-02-10T00:55:29;32.80;;;16.00;;
67352;SDS011;54238;52.278;21.056;2023-02-10T00:57:58;34.90;;;17.00;;
67352;SDS011;54238;52.278;21.056;2023-02-10T01:00:25;34.50;;;14.00;;
67352;SDS011;54238;52.278;21.056;2023-02-10T01:02:57;30.50;;;14.40;;
67352;SDS011;54238;52.278;21.056;2023-02-10T01:05:26;28.80;;;13.30;;
67352;SDS011;54238;52.278;21.056;2023-02-10T01:08:00;38.00;;;15.30;;
67352;SDS011;54238;52.278;21.056;2023-02-10T01:10:28;34.40;;;16.00;;
67352;SDS011;54238;52.278;21.056;2023-02-10T01:12:55;32.90;;;14.90;;
67352;SDS011;54238;52.278;21.056;2023-02-10T01:15:24;21.60;;;10.30;;
67352;SDS011;54238;52.278;21.056;2023-02-10T01:17:53;33.70;;;15.70;;
67352;SDS011;54238;52.278;21.056;2023-02-10T01:20:23;26.60;;;13.90;;
67352;SDS011;54238;52.278;21.056;2023-02-10T01:22:50;36.80;;;15.00;;
67352;SDS011;54238;52.278;21.056;2023-02-10T01:25:21;24.70;;;11.80;;
67352;SDS011;54238;52.278;21.056;2023-02-10T01:27:52;36.00;;;14.30;;
67352;SDS011;54238;52.278;21.056;2023-02-10T01:30:38;28.30;;;11.60;;
67352;SDS011;54238;52.278;21.056;2023-02-10T01:33:07;27.10;;;13.30;;
67352;SDS011;54238;52.278;21.056;2023-02-10T01:35:40;32.80;;;16.10;;
67352;SDS011;54238;52.278;21.056;2023-02-10T01:38:11;31.60;;;14.60;;
67352;SDS011;54238;52.278;21.056;2023-02-10T01:40:38;36.90;;;16.00;;
67352;SDS011;54238;52.278;21.056;2023-02-10T01:43:14;44.90;;;18.00;;
67352;SDS011;54238;52.278;21.056;2023-02-10T01:45:58;33.90;;;15.00;;
67352;SDS011;54238;52.278;21.056;2023-02-10T01:48:27;41.60;;;17.90;;
67352;SDS011;54238;52.278;21.056;2023-02-10T01:51:02;33.90;;;16.00;;
67352;SDS011;54238;52.278;21.056;2023-02-10T01:53:32;23.80;;;11.50;;
67352;SDS011;54238;52.278;21.056;2023-02-10T01:56:02;33.40;;;16.00;;
67352;SDS011;54238;52.278;21.056;2023-02-10T01:58:34;33.50;;;16.20;;
67352;SDS011;54238;52.278;21.056;2023-02-10T02:01:01;26.70;;;12.20;;
67352;SDS011;54238;52.278;21.056;2023-02-10T02:03:28;30.70;;;15.40;;
67352;SDS011;54238;52.278;21.056;2023-02-10T02:05:58;28.70;;;14.50;;
67352;SDS011;54238;52.278;21.056;2023-02-10T02:08:29;28.20;;;14.60;;
67352;SDS011;54238;52.278;21.056;2023-02-10T02:13:49;38.20;;;17.50;;
67352;SDS011;54238;52.278;21.056;2023-02-10T02:28:11;36.80;;;16.70;;
67352;SDS011;54238;52.278;21.056;2023-02-10T02:34:00;28.00;;;12.60;;
67352;SDS011;54238;52.278;21.056;2023-02-10T02:39:56;29.50;;;13.70;;
67352;SDS011;54238;52.278;21.056;2023-02-10T02:42:29;34.20;;;16.40;;
67352;SDS011;54238;52.278;21.056;2023-02-10T02:47:56;28.80;;;13.20;;
67352;SDS011;54238;52.278;21.056;2023-02-10T02:59:35;32.70;;;14.80;;
67352;SDS011;54238;52.278;21.056;2023-02-10T03:02:13;33.10;;;14.50;;
67352;SDS011;54238;52.278;21.056;2023-02-10T03:04:45;27.00;;;12.90;;
67352;SDS011;54238;52.278;21.056;2023-02-10T03:07:12;27.70;;;12.30;;
67352;SDS011;54238;52.278;21.056;2023-02-10T03:09:42;38.30;;;15.20;;
67352;SDS011;54238;52.278;21.056;2023-02-10T03:12:10;27.70;;;14.00;;
67352;SDS011;54238;52.278;21.056;2023-02-10T03:14:39;30.20;;;13.40;;
67352;SDS011;54238;52.278;21.056;2023-02-10T03:17:11;30.10;;;14.70;;
67352;SDS011;54238;52.278;21.056;2023-02-10T03:19:43;28.20;;;15.30;;
67352;SDS011;54238;52.278;21.056;2023-02-10T03:22:10;31.90;;;14.20;;
67352;SDS011;54238;52.278;21.056;2023-02-10T03:24:42;37.60;;;17.10;;
67352;SDS011;54238;52.278;21.056;2023-02-10T03:27:11;33.50;;;16.80;;
67352;SDS011;54238;52.278;21.056;2023-02-10T03:29:38;30.40;;;15.10;;
67352;SDS011;54238;52.278;21.056;2023-02-10T03:32:05;30.40;;;15.90;;
67352;SDS011;54238;52.278;21.056;2023-02-10T03:34:35;37.10;;;17.10;;
67352;SDS011;54238;52.278;21.056;2023-02-10T03:37:02;34.20;;;15.60;;
67352;SDS011;54238;52.278;21.056;2023-02-10T03:39:31;38.80;;;18.30;;
67352;SDS011;54238;52.278;21.056;2023-02-10T03:42:01;30.30;;;15.80;;
67352;SDS011;54238;52.278;21.056;2023-02-10T03:44:31;22.80;;;11.20;;
67352;SDS011;54238;52.278;21.056;2023-02-10T03:47:00;27.00;;;12.40;;
67352;SDS011;54238;52.278;21.056;2023-02-10T03:49:27;27.60;;;13.20;;
67352;SDS011;54238;52.278;21.056;2023-02-10T03:51:57;27.00;;;13.50;;
67352;SDS011;54238;52.278;21.056;2023-02-10T03:54:24;51.10;;;20.50;;
67352;SDS011;54238;52.278;21.056;2023-02-10T03:56:57;19.20;;;10.70;;
67352;SDS011;54238;52.278;21.056;2023-02-10T03:59:24;26.30;;;12.60;;
67352;SDS011;54238;52.278;21.056;2023-02-10T04:01:54;35.70;;;16.60;;
67352;SDS011;54238;52.278;21.056;2023-02-10T04:04:23;25.50;;;12.90;;
67352;SDS011;54238;52.278;21.056;2023-02-10T04:06:56;31.10;;;16.60;;
67352;SDS011;54238;52.278;21.056;2023-02-10T04:09:23;31.70;;;17.90;;
67352;SDS011;54238;52.278;21.056;2023-02-10T04:11:50;32.20;;;15.80;;
67352;SDS011;54238;52.278;21.056;2023-02-10T04:14:27;28.90;;;14.70;;
67352;SDS011;54238;52.278;21.056;2023-02-10T04:17:01;27.30;;;13.40;;
67352;SDS011;54238;52.278;21.056;2023-02-10T04:19:32;39.50;;;16.20;;
67352;SDS011;54238;52.278;21.056;2023-02-10T04:22:01;25.10;;;12.80;;
67352;SDS011;54238;52.278;21.056;2023-02-10T04:24:31;38.90;;;17.80;;
67352;SDS011;54238;52.278;21.056;2023-02-10T04:26:58;29.40;;;15.50;;
67352;SDS011;54238;52.278;21.056;2023-02-10T04:29:27;22.70;;;11.10;;
67352;SDS011;54238;52.278;21.056;2023-02-10T04:31:59;29.90;;;14.50;;
67352;SDS011;54238;52.278;21.056;2023-02-10T04:34:26;27.10;;;13.80;;
67352;SDS011;54238;52.278;21.056;2023-02-10T04:36:55;30.30;;;14.80;;
67352;SDS011;54238;52.278;21.056;2023-02-10T04:39:27;23.80;;;12.00;;
67352;SDS011;54238;52.278;21.056;2023-02-10T04:41:56;35.50;;;17.30;;
67352;SDS011;54238;52.278;21.056;2023-02-10T04:44:23;26.40;;;15.00;;
67352;SDS011;54238;52.278;21.056;2023-02-10T04:46:53;32.70;;;16.80;;
67352;SDS011;54238;52.278;21.056;2023-02-10T04:49:20;29.70;;;15.90;;
67352;SDS011;54238;52.278;21.056;2023-02-10T04:51:51;31.50;;;14.00;;
67352;SDS011;54238;52.278;21.056;2023-02-10T04:54:18;25.00;;;13.20;;
67352;SDS011;54238;52.278;21.056;2023-02-10T04:56:46;28.80;;;14.80;;
67352;SDS011;54238;52.278;21.056;2023-02-10T04:59:17;32.10;;;15.00;;
67352;SDS011;54238;52.278;21.056;2023-02-10T05:01:44;29.60;;;14.70;;
67352;SDS011;54238;52.278;21.056;2023-02-10T05:04:16;25.70;;;12.70;;
67352;SDS011;54238;52.278;21.056;2023-02-10T05:06:49;22.20;;;10.50;;
67352;SDS011;54238;52.278;21.056;2023-02-10T05:09:19;36.60;;;17.20;;
67352;SDS011;54238;52.278;21.056;2023-02-10T05:11:46;43.90;;;14.50;;
67352;SDS011;54238;52.278;21.056;2023-02-10T05:14:15;26.10;;;12.90;;
67352;SDS011;54238;52.278;21.056;2023-02-10T05:16:45;34.00;;;15.50;;
67352;SDS011;54238;52.278;21.056;2023-02-10T05:19:17;26.50;;;13.70;;
67352;SDS011;54238;52.278;21.056;2023-02-10T05:21:49;37.20;;;17.20;;
67352;SDS011;54238;52.278;21.056;2023-02-10T05:24:16;30.20;;;15.30;;
67352;SDS011;54238;52.278;21.056;2023-02-10T05:26:43;30.40;;;15.00;;
67352;SDS011;54238;52.278;21.056;2023-02-10T05:29:14;29.90;;;13.60;;
67352;SDS011;54238;52.278;21.056;2023-02-10T05:31:43;31.10;;;15.10;;
67352;SDS011;54238;52.278;21.056;2023-02-10T05:34:13;28.50;;;12.90;;
67352;SDS011;54238;52.278;21.056;2023-02-10T05:36:42;33.20;;;14.30;;
67352;SDS011;54238;52.278;21.056;2023-02-10T05:39:11;27.80;;;13.60;;
67352;SDS011;54238;52.278;21.056;2023-02-10T05:41:55;33.40;;;16.00;;
67352;SDS011;54238;52.278;21.056;2023-02-10T05:44:28;39.60;;;18.20;;
67352;SDS011;54238;52.278;21.056;2023-02-10T05:46:59;33.00;;;16.70;;
67352;SDS011;54238;52.278;21.056;2023-02-10T05:49:28;34.90;;;16.00;;
67352;SDS011;54238;52.278;21.056;2023-02-10T05:52:01;32.20;;;15.70;;
67352;SDS011;54238;52.278;21.056;2023-02-10T05:59:24;37.10;;;17.10;;
67352;SDS011;54238;52.278;21.056;2023-02-10T06:01:52;36.40;;;17.40;;
67352;SDS011;54238;52.278;21.056;2023-02-10T06:04:24;31.10;;;15.90;;
67352;SDS011;54238;52.278;21.056;2023-02-10T06:09:36;38.50;;;18.00;;
67352;SDS011;54238;52.278;21.056;2023-02-10T06:15:18;26.60;;;14.10;;
67352;SDS011;54238;52.278;21.056;2023-02-10T06:17:50;25.50;;;13.70;;
67352;SDS011;54238;52.278;21.056;2023-02-10T06:20:17;27.80;;;13.00;;
67352;SDS011;54238;52.278;21.056;2023-02-10T06:22:49;24.20;;;11.60;;
67352;SDS011;54238;52.278;21.056;2023-02-10T06:25:21;30.40;;;16.10;;
67352;SDS011;54238;52.278;21.056;2023-02-10T06:27:52;31.60;;;14.90;;
67352;SDS011;54238;52.278;21.056;2023-02-10T06:30:22;34.60;;;15.70;;
67352;SDS011;54238;52.278;21.056;2023-02-10T06:32:49;27.50;;;12.70;;
67352;SDS011;54238;52.278;21.056;2023-02-10T06:35:19;37.30;;;18.60;;
67352;SDS011;54238;52.278;21.056;2023-02-10T06:37:48;44.30;;;18.90;;
67352;SDS011;54238;52.278;21.056;2023-02-10T06:40:18;42.50;;;18.70;;
67352;SDS011;54238;52.278;21.056;2023-02-10T06:42:48;38.60;;;17.20;;
67352;SDS011;54238;52.278;21.056;2023-02-10T06:45:16;32.00;;;15.90;;
67352;SDS011;54238;52.278;21.056;2023-02-10T06:47:43;34.00;;;16.10;;
67352;SDS011;54238;52.278;21.056;2023-02-10T06:50:10;38.10;;;19.70;;
67352;SDS011;54238;52.278;21.056;2023-02-10T06:52:39;34.50;;;18.00;;
67352;SDS011;54238;52.278;21.056;2023-02-10T06:55:06;26.50;;;14.50;;
67352;SDS011;54238;52.278;21.056;2023-02-10T06:57:36;32.00;;;16.20;;
67352;SDS011;54238;52.278;21.056;2023-02-10T07:00:10;32.80;;;16.60;;
67352;SDS011;54238;52.278;21.056;2023-02-10T07:02:41;43.80;;;16.70;;
67352;SDS011;54238;52.278;21.056;2023-02-10T07:05:16;38.90;;;17.70;;
67352;SDS011;54238;52.278;21.056;2023-02-10T07:07:46;37.40;;;16.90;;
67352;SDS011;54238;52.278;21.056;2023-02-10T07:10:20;36.90;;;18.90;;
67352;SDS011;54238;52.278;21.056;2023-02-10T07:12:50;40.90;;;18.60;;
67352;SDS011;54238;52.278;21.056;2023-02-10T07:15:18;41.60;;;18.50;;
67352;SDS011;54238;52.278;21.056;2023-02-10T07:17:45;32.20;;;16.00;;
67352;SDS011;54238;52.278;21.056;2023-02-10T07:20:19;38.70;;;18.50;;
67352;SDS011;54238;52.278;21.056;2023-02-10T07:22:47;39.00;;;16.80;;
67352;SDS011;54238;52.278;21.056;2023-02-10T07:25:15;44.80;;;21.40;;
67352;SDS011;54238;52.278;21.056;2023-02-10T07:27:42;35.40;;;16.50;;
67352;SDS011;54238;52.278;21.056;2023-02-10T07:30:13;40.90;;;19.30;;
67352;SDS011;54238;52.278;21.056;2023-02-10T07:32:45;39.40;;;20.30;;
67352;SDS011;54238;52.278;21.056;2023-02-10T07:35:12;38.80;;;18.40;;
67352;SDS011;54238;52.278;21.056;2023-02-10T07:37:40;43.50;;;19.10;;
67352;SDS011;54238;52.278;21.056;2023-02-10T07:40:08;38.50;;;20.00;;
67352;SDS011;54238;52.278;21.056;2023-02-10T07:42:43;37.90;;;18.10;;
67352;SDS011;54238;52.278;21.056;2023-02-10T07:45:12;39.70;;;18.50;;
67352;SDS011;54238;52.278;21.056;2023-02-10T07:47:41;43.20;;;18.50;;
67352;SDS011;54238;52.278;21.056;2023-02-10T07:50:11;35.60;;;18.30;;
67352;SDS011;54238;52.278;21.056;2023-02-10T07:52:41;37.80;;;19.90;;
67352;SDS011;54238;52.278;21.056;2023-02-10T07:55:10;41.70;;;18.70;;
67352;SDS011;54238;52.278;21.056;2023-02-10T07:57:38;40.90;;;18.10;;
67352;SDS011;54238;52.278;21.056;2023-02-10T08:00:09;44.00;;;20.30;;
67352;SDS011;54238;52.278;21.056;2023-02-10T08:02:39;34.90;;;18.20;;
67352;SDS011;54238;52.278;21.056;2023-02-10T08:05:06;35.10;;;19.60;;
67352;SDS011;54238;52.278;21.056;2023-02-10T08:07:33;41.30;;;19.70;;
67352;SDS011;54238;52.278;21.056;2023-02-10T08:10:01;34.80;;;16.60;;
67352;SDS011;54238;52.278;21.056;2023-02-10T08:12:29;35.60;;;18.80;;
67352;SDS011;54238;52.278;21.056;2023-02-10T08:14:57;32.50;;;16.10;;
67352;SDS011;54238;52.278;21.056;2023-02-10T08:17:29;48.80;;;20.90;;
67352;SDS011;54238;52.278;21.056;2023-02-10T08:19:58;45.40;;;20.80;;
67352;SDS011;54238;52.278;21.056;2023-02-10T08:22:28;31.40;;;16.30;;
67352;SDS011;54238;52.278;21.056;2023-02-10T08:24:56;35.60;;;17.10;;
67352;SDS011;54238;52.278;21.056;2023-02-10T08:27:26;36.50;;;19.90;;
67352;SDS011;54238;52.278;21.056;2023-02-10T08:29:53;37.80;;;20.30;;
67352;SDS011;54238;52.278;21.056;2023-02-10T08:32:23;40.00;;;19.00;;
67352;SDS011;54238;52.278;21.056;2023-02-10T08:34:53;32.10;;;17.40;;
67352;SDS011;54238;52.278;21.056;2023-02-10T08:37:27;39.60;;;20.40;;
67352;SDS011;54238;52.278;21.056;2023-02-10T08:39:56;37.90;;;19.00;;
67352;SDS011;54238;52.278;21.056;2023-02-10T08:42:25;33.60;;;17.30;;
67352;SDS011;54238;52.278;21.056;2023-02-10T08:44:58;44.50;;;20.40;;
67352;SDS011;54238;52.278;21.056;2023-02-10T08:47:29;32.30;;;14.80;;
67352;SDS011;54238;52.278;21.056;2023-02-10T08:50:04;40.40;;;18.00;;
67352;SDS011;54238;52.278;21.056;2023-02-10T08:52:34;45.20;;;20.80;;
67352;SDS011;54238;52.278;21.056;2023-02-10T08:55:03;35.90;;;17.70;;
67352;SDS011;54238;52.278;21.056;2023-02-10T08:57:34;33.90;;;15.00;;
67352;SDS011;54238;52.278;21.056;2023-02-10T09:00:07;39.40;;;20.80;;
67352;SDS011;54238;52.278;21.056;2023-02-10T09:02:37;41.40;;;20.90;;
67352;SDS011;54238;52.278;21.056;2023-02-10T09:05:05;38.30;;;19.30;;
67352;SDS011;54238;52.278;21.056;2023-02-10T09:07:35;46.60;;;21.40;;
67352;SDS011;54238;52.278;21.056;2023-02-10T09:10:08;44.60;;;21.80;;
67352;SDS011;54238;52.278;21.056;2023-02-10T09:12:40;43.40;;;21.90;;
67352;SDS011;54238;52.278;21.056;2023-02-10T09:15:13;41.00;;;21.40;;
67352;SDS011;54238;52.278;21.056;2023-02-10T09:17:45;38.40;;;22.10;;
67352;SDS011;54238;52.278;21.056;2023-02-10T09:20:15;54.80;;;24.50;;
67352;SDS011;54238;52.278;21.056;2023-02-10T09:25:37;49.20;;;21.60;;
67352;SDS011;54238;52.278;21.056;2023-02-10T09:28:06;35.90;;;17.60;;
67352;SDS011;54238;52.278;21.056;2023-02-10T09:30:37;37.10;;;20.50;;
67352;SDS011;54238;52.278;21.056;2023-02-10T09:33:04;41.30;;;21.20;;
67352;SDS011;54238;52.278;21.056;2023-02-10T09:35:34;46.20;;;23.30;;
67352;SDS011;54238;52.278;21.056;2023-02-10T09:38:08;45.70;;;21.50;;
67352;SDS011;54238;52.278;21.056;2023-02-10T09:40:52;40.30;;;19.20;;
67352;SDS011;54238;52.278;21.056;2023-02-10T09:46:06;53.20;;;22.00;;
67352;SDS011;54238;52.278;21.056;2023-02-10T09:55:36;48.50;;;23.30;;
67352;SDS011;54238;52.278;21.056;2023-02-10T10:04:05;44.50;;;20.40;;
67352;SDS011;54238;52.278;21.056;2023-02-10T10:06:41;45.60;;;22.20;;
67352;SDS011;54238;52.278;21.056;2023-02-10T10:09:38;39.10;;;17.60;;
67352;SDS011;54238;52.278;21.056;2023-02-10T10:12:19;40.00;;;18.80;;
67352;SDS011;54238;52.278;21.056;2023-02-10T10:14:49;40.50;;;18.30;;
67352;SDS011;54238;52.278;21.056;2023-02-10T10:17:38;41.30;;;22.10;;
67352;SDS011;54238;52.278;21.056;2023-02-10T10:34:52;34.00;;;17.50;;
67352;SDS011;54238;52.278;21.056;2023-02-10T10:37:23;42.70;;;21.90;;
67352;SDS011;54238;52.278;21.056;2023-02-10T10:40:03;36.40;;;17.40;;
67352;SDS011;54238;52.278;21.056;2023-02-10T10:42:55;33.80;;;16.80;;
67352;SDS011;54238;52.278;21.056;2023-02-10T10:45:33;49.80;;;22.70;;
67352;SDS011;54238;52.278;21.056;2023-02-10T10:48:12;40.60;;;20.20;;
67352;SDS011;54238;52.278;21.056;2023-02-10T10:50:45;34.90;;;17.90;;
67352;SDS011;54238;52.278;21.056;2023-02-10T10:56:13;44.50;;;23.50;;
67352;SDS011;54238;52.278;21.056;2023-02-10T10:58:49;41.30;;;19.30;;
67352;SDS011;54238;52.278;21.056;2023-02-10T11:01:35;49.30;;;24.10;;
67352;SDS011;54238;52.278;21.056;2023-02-10T11:04:12;45.60;;;19.80;;
67352;SDS011;54238;52.278;21.056;2023-02-10T11:06:44;46.50;;;22.40;;
67352;SDS011;54238;52.278;21.056;2023-02-10T11:12:19;46.40;;;22.80;;
67352;SDS011;54238;52.278;21.056;2023-02-10T11:14:51;44.80;;;20.90;;
67352;SDS011;54238;52.278;21.056;2023-02-10T11:22:40;42.60;;;21.50;;
67352;SDS011;54238;52.278;21.056;2023-02-10T11:25:33;37.50;;;17.90;;
67352;SDS011;54238;52.278;21.056;2023-02-10T11:28:06;45.00;;;23.60;;
67352;SDS011;54238;52.278;21.056;2023-02-10T11:30:53;49.30;;;24.40;;
67352;SDS011;54238;52.278;21.056;2023-02-10T11:33:29;35.00;;;17.80;;
67352;SDS011;54238;52.278;21.056;2023-02-10T11:36:08;35.70;;;17.80;;
67352;SDS011;54238;52.278;21.056;2023-02-10T11:38:40;44.80;;;22.50;;
67352;SDS011;54238;52.278;21.056;2023-02-10T11:41:10;58.70;;;23.60;;
67352;SDS011;54238;52.278;21.056;2023-02-10T11:43:46;54.00;;;25.60;;
67352;SDS011;54238;52.278;21.056;2023-02-10T11:48:59;45.10;;;22.60;;
67352;SDS011;54238;52.278;21.056;2023-02-10T11:51:32;43.10;;;20.60;;
67352;SDS011;54238;52.278;21.056;2023-02-10T11:54:02;52.40;;;24.20;;
67352;SDS011;54238;52.278;21.056;2023-02-10T11:59:46;50.90;;;23.30;;
67352;SDS011;54238;52.278;21.056;2023-02-10T12:07:49;42.90;;;21.20;;
67352;SDS011;54238;52.278;21.056;2023-02-10T12:10:30;46.10;;;18.10;;
67352;SDS011;54238;52.278;21.056;2023-02-10T12:28:09;48.60;;;22.70;;
67352;SDS011;54238;52.278;21.056;2023-02-10T12:30:56;55.70;;;21.90;;
67352;SDS011;54238;52.278;21.056;2023-02-10T12:34:32;41.20;;;20.20;;
67352;SDS011;54238;52.278;21.056;2023-02-10T12:40:23;52.40;;;23.40;;
67352;SDS011;54238;52.278;21.056;2023-02-10T12:46:13;43.80;;;22.90;;
67352;SDS011;54238;52.278;21.056;2023-02-10T13:00:39;42.80;;;22.40;;
67352;SDS011;54238;52.278;21.056;2023-02-10T13:03:34;35.40;;;16.50;;
67352;SDS011;54238;52.278;21.056;2023-02-10T13:06:25;52.40;;;24.50;;
67352;SDS011;54238;52.278;21.056;2023-02-10T13:12:25;42.70;;;22.00;;
67352;SDS011;54238;52.278;21.056;2023-02-10T13:15:11;48.30;;;25.20;;
67352;SDS011;54238;52.278;21.056;2023-02-10T13:17:48;50.80;;;24.70;;
67352;SDS011;54238;52.278;21.056;2023-02-10T13:35:55;54.70;;;24.90;;
67352;SDS011;54238;52.278;21.056;2023-02-10T13:38:31;40.20;;;20.40;;
67352;SDS011;54238;52.278;21.056;2023-02-10T13:41:04;52.10;;;21.70;;
67352;SDS011;54238;52.278;21.056;2023-02-10T13:43:55;38.40;;;19.30;;
67352;SDS011;54238;52.278;21.056;2023-02-10T13:46:31;52.80;;;23.80;;
67352;SDS011;54238;52.278;21.056;2023-02-10T13:49:04;50.20;;;24.10;;
67352;SDS011;54238;52.278;21.056;2023-02-10T13:51:40;55.70;;;24.90;;
67352;SDS011;54238;52.278;21.056;2023-02-10T13:54:31;60.30;;;27.60;;
67352;SDS011;54238;52.278;21.056;2023-02-10T13:57:00;58.10;;;26.10;;
67352;SDS011;54238;52.278;21.056;2023-02-10T13:59:37;53.30;;;25.50;;
67352;SDS011;54238;52.278;21.056;2023-02-10T14:02:22;58.50;;;27.40;;
67352;SDS011;54238;52.278;21.056;2023-02-10T14:04:57;50.80;;;22.70;;
67352;SDS011;54238;52.278;21.056;2023-02-10T14:13:19;44.70;;;19.60;;
67352;SDS011;54238;52.278;21.056;2023-02-10T14:15:59;55.70;;;26.30;;
67352;SDS011;54238;52.278;21.056;2023-02-10T14:18:36;58.60;;;27.00;;
67352;SDS011;54238;52.278;21.056;2023-02-10T14:21:11;62.20;;;28.00;;
67352;SDS011;54238;52.278;21.056;2023-02-10T14:23:50;49.50;;;24.00;;
67352;SDS011;54238;52.278;21.056;2023-02-10T14:26:29;59.10;;;27.20;;
67352;SDS011;54238;52.278;21.056;2023-02-10T14:29:03;51.30;;;25.00;;
67352;SDS011;54238;52.278;21.056;2023-02-10T14:31:39;59.40;;;25.90;;
67352;SDS011;54238;52.278;21.056;2023-02-10T14:34:36;61.40;;;28.70;;
67352;SDS011;54238;52.278;21.056;2023-02-10T14:37:19;47.00;;;21.80;;
67352;SDS011;54238;52.278;21.056;2023-02-10T14:39:59;63.60;;;27.00;;
67352;SDS011;54238;52.278;21.056;2023-02-10T14:42:34;52.70;;;21.80;;
67352;SDS011;54238;52.278;21.056;2023-02-10T14:45:04;57.00;;;27.80;;
67352;SDS011;54238;52.278;21.056;2023-02-10T14:47:49;50.50;;;21.50;;
67352;SDS011;54238;52.278;21.056;2023-02-10T14:50:31;50.20;;;23.70;;
67352;SDS011;54238;52.278;21.056;2023-02-10T14:53:04;71.00;;;29.60;;
67352;SDS011;54238;52.278;21.056;2023-02-10T14:55:45;59.70;;;27.70;;
67352;SDS011;54238;52.278;21.056;2023-02-10T14:58:23;56.20;;;28.60;;
67352;SDS011;54238;52.278;21.056;2023-02-10T15:03:40;43.40;;;20.20;;
67352;SDS011;54238;52.278;21.056;2023-02-10T15:06:08;46.80;;;21.70;;
67352;SDS011;54238;52.278;21.056;2023-02-10T15:11:20;68.30;;;26.30;;
67352;SDS011;54238;52.278;21.056;2023-02-10T15:14:35;57.30;;;26.30;;
67352;SDS011;54238;52.278;21.056;2023-02-10T15:17:17;56.80;;;24.60;;
67352;SDS011;54238;52.278;21.056;2023-02-10T15:20:02;54.90;;;24.80;;
67352;SDS011;54238;52.278;21.056;2023-02-10T15:23:03;85.60;;;30.70;;
67352;SDS011;54238;52.278;21.056;2023-02-10T15:25:37;51.40;;;20.00;;
67352;SDS011;54238;52.278;21.056;2023-02-10T15:33:21;58.60;;;28.20;;
67352;SDS011;54238;52.278;21.056;2023-02-10T15:36:17;55.00;;;25.50;;
67352;SDS011;54238;52.278;21.056;2023-02-10T15:44:34;51.30;;;23.50;;
67352;SDS011;54238;52.278;21.056;2023-02-10T15:49:57;60.60;;;27.30;;
67352;SDS011;54238;52.278;21.056;2023-02-10T15:52:32;59.00;;;26.40;;
67352;SDS011;54238;52.278;21.056;2023-02-10T15:55:40;62.10;;;28.90;;
67352;SDS011;54238;52.278;21.056;2023-02-10T15:58:11;68.40;;;30.70;;
67352;SDS011;54238;52.278;21.056;2023-02-10T16:00:46;54.90;;;25.90;;
67352;SDS011;54238;52.278;21.056;2023-02-10T16:03:14;55.30;;;25.60;;
67352;SDS011;54238;52.278;21.056;2023-02-10T16:05:41;63.90;;;29.20;;
67352;SDS011;54238;52.278;21.056;2023-02-10T16:08:20;68.20;;;32.50;;
67352;SDS011;54238;52.278;21.056;2023-02-10T16:10:52;59.80;;;25.20;;
67352;SDS011;54238;52.278;21.056;2023-02-10T16:13:26;68.00;;;30.50;;
67352;SDS011;54238;52.278;21.056;2023-02-10T16:16:04;56.20;;;27.70;;
67352;SDS011;54238;52.278;21.056;2023-02-10T16:18:39;66.30;;;28.80;;
67352;SDS011;54238;52.278;21.056;2023-02-10T16:21:11;40.50;;;19.80;;
67352;SDS011;54238;52.278;21.056;2023-02-10T16:23:43;38.50;;;17.60;;
67352;SDS011;54238;52.278;21.056;2023-02-10T16:26:23;49.90;;;21.10;;
67352;SDS011;54238;52.278;21.056;2023-02-10T16:28:57;60.00;;;28.90;;
67352;SDS011;54238;52.278;21.056;2023-02-10T16:31:26;60.00;;;27.10;;
67352;SDS011;54238;52.278;21.056;2023-02-10T16:33:53;58.30;;;25.70;;
67352;SDS011;54238;52.278;21.056;2023-02-10T16:36:23;61.50;;;26.70;;
67352;SDS011;54238;52.278;21.056;2023-02-10T16:38:52;49.60;;;21.80;;
67352;SDS011;54238;52.278;21.056;2023-02-10T16:41:21;62.70;;;28.70;;
67352;SDS011;54238;52.278;21.056;2023-02-10T16:43:49;57.90;;;26.90;;
67352;SDS011;54238;52.278;21.056;2023-02-10T16:46:18;65.80;;;29.30;;
67352;SDS011;54238;52.278;21.056;2023-02-10T16:48:49;64.50;;;29.00;;
67352;SDS011;54238;52.278;21.056;2023-02-10T16:51:19;62.10;;;30.70;;
67352;SDS011;54238;52.278;21.056;2023-02-10T16:53:51;59.70;;;27.30;;
67352;SDS011;54238;52.278;21.056;2023-02-10T16:56:23;65.80;;;30.00;;
67352;SDS011;54238;52.278;21.056;2023-02-10T16:58:50;59.30;;;28.60;;
67352;SDS011;54238;52.278;21.056;2023-02-10T17:01:25;57.10;;;26.60;;
67352;SDS011;54238;52.278;21.056;2023-02-10T17:03:54;48.20;;;24.40;;
67352;SDS011;54238;52.278;21.056;2023-02-10T17:06:25;62.40;;;28.40;;
67352;SDS011;54238;52.278;21.056;2023-02-10T17:08:54;62.00;;;29.00;;
67352;SDS011;54238;52.278;21.056;2023-02-10T17:11:32;67.80;;;30.50;;
67352;SDS011;54238;52.278;21.056;2023-02-10T17:13:59;60.90;;;29.40;;
67352;SDS011;54238;52.278;21.056;2023-02-10T17:16:40;59.70;;;25.90;;
67352;SDS011;54238;52.278;21.056;2023-02-10T17:19:14;62.90;;;27.60;;
67352;SDS011;54238;52.278;21.056;2023-02-10T17:21:42;58.70;;;27.80;;
67352;SDS011;54238;52.278;21.056;2023-02-10T17:24:10;53.70;;;25.20;;
67352;SDS011;54238;52.278;21.056;2023-02-10T17:26:38;53.00;;;25.60;;
67352;SDS011;54238;52.278;21.056;2023-02-10T17:29:14;66.50;;;30.10;;
67352;SDS011;54238;52.278;21.056;2023-02-10T17:31:43;65.40;;;30.40;;
67352;SDS011;54238;52.278;21.056;2023-02-10T17:34:11;59.10;;;27.10;;
67352;SDS011;54238;52.278;21.056;2023-02-10T17:36:41;53.10;;;26.70;;
67352;SDS011;54238;52.278;21.056;2023-02-10T17:39:14;50.70;;;22.60;;
67352;SDS011;54238;52.278;21.056;2023-02-10T17:41:56;74.30;;;34.40;;